Time;durP1;ratioP1;P1;durP2;ratioP2;P2;SDS_P1;SDS_P2;PMS_P1;PMS_P2;Temp;Humidity;BMP_temperature;BMP_pressure;BME280_temperature;BME280_humidity;BME280_pressure;Samples;Min_cycle;Max_cycle;Signal;HPM_P1;HPM_P2
2022/03/20 00:00:26;;;;;;;6.37;4.50;;;12.60;46.50;;;;;;5074425;28;20197;-15
2022/03/20 00:02:54;;;;;;;6.37;4.90;;;12.60;46.50;;;;;;5057675;28;20211;-15
2022/03/20 00:05:20;;;;;;;5.17;4.00;;;12.60;46.50;;;;;;5074390;28;20227;-19
2022/03/20 00:07:46;;;;;;;5.30;4.23;;;12.60;46.50;;;;;;5073937;28;20230;-16
2022/03/20 00:10:12;;;;;;;6.90;4.83;;;12.60;46.50;;;;;;5073566;28;20553;-16
2022/03/20 00:12:39;;;;;;;7.80;4.80;;;12.60;46.50;;;;;;5074605;28;20247;-14
2022/03/20 00:15:05;;;;;;;6.80;4.80;;;12.50;46.40;;;;;;5056925;28;20175;-15
2022/03/20 00:17:31;;;;;;;6.20;4.90;;;12.50;46.40;;;;;;5057653;28;20219;-14
2022/03/20 00:19:57;;;;;;;6.43;5.23;;;12.50;46.50;;;;;;5056377;28;20223;-14
2022/03/20 00:22:24;;;;;;;6.37;5.00;;;12.50;46.40;;;;;;5076057;28;20331;-16
2022/03/20 00:24:50;;;;;;;6.73;5.10;;;12.50;46.50;;;;;;5086563;28;20234;-15
2022/03/20 00:27:16;;;;;;;5.80;4.80;;;12.50;46.50;;;;;;5072092;28;20182;-16
2022/03/20 00:29:43;;;;;;;6.67;5.07;;;12.50;46.50;;;;;;5056991;28;20184;-14
2022/03/20 00:32:11;;;;;;;6.77;5.10;;;12.50;46.50;;;;;;5057348;28;20173;-15
2022/03/20 00:34:38;;;;;;;6.17;4.97;;;12.50;46.50;;;;;;5057516;28;20178;-15
2022/03/20 00:37:06;;;;;;;6.70;5.20;;;12.50;46.50;;;;;;5058360;28;20185;-15
2022/03/20 00:39:32;;;;;;;6.00;4.93;;;12.50;46.50;;;;;;5074720;28;20288;-18
2022/03/20 00:41:58;;;;;;;6.50;4.97;;;12.50;46.50;;;;;;5075253;28;20168;-15
2022/03/20 00:44:24;;;;;;;6.87;5.40;;;12.40;46.40;;;;;;5072966;28;20199;-15
2022/03/20 00:46:50;;;;;;;6.40;5.00;;;12.40;46.40;;;;;;5055930;28;20305;-15
2022/03/20 00:49:16;;;;;;;6.47;5.00;;;12.40;46.40;;;;;;5072696;28;20194;-16
2022/03/20 00:51:43;;;;;;;6.33;5.30;;;12.40;46.40;;;;;;5073689;28;20192;-18
2022/03/20 00:54:10;;;;;;;6.70;5.30;;;12.40;46.40;;;;;;5074399;28;20171;-17
2022/03/20 00:56:36;;;;;;;7.37;5.60;;;12.40;46.40;;;;;;5056938;28;20186;-15
2022/03/20 00:59:03;;;;;;;7.50;5.53;;;12.40;46.40;;;;;;5056299;28;20275;-18
2022/03/20 01:01:29;;;;;;;7.20;5.30;;;12.30;46.40;;;;;;5075004;28;20411;-15
2022/03/20 01:03:55;;;;;;;7.27;5.77;;;12.30;46.80;;;;;;5056575;28;20220;-17
2022/03/20 01:06:22;;;;;;;7.63;5.83;;;12.30;46.40;;;;;;5057204;28;20188;-14
2022/03/20 01:08:52;;;;;;;7.13;5.53;;;12.30;46.40;;;;;;5060924;28;20246;-18
2022/03/20 01:11:19;;;;;;;7.10;5.30;;;12.30;46.40;;;;;;5056660;28;20233;-14
2022/03/20 01:13:45;;;;;;;7.80;6.00;;;12.30;46.40;;;;;;5056056;28;20172;-14
2022/03/20 01:16:11;;;;;;;7.10;5.83;;;12.30;46.40;;;;;;5056687;28;20272;-13
2022/03/20 01:18:37;;;;;;;8.67;5.73;;;12.30;46.40;;;;;;5056945;28;20276;-13
2022/03/20 01:21:03;;;;;;;6.80;5.60;;;12.30;46.40;;;;;;5074568;28;20550;-15
2022/03/20 01:23:29;;;;;;;7.90;5.80;;;12.30;46.40;;;;;;5073632;28;20183;-15
2022/03/20 01:25:55;;;;;;;8.17;6.00;;;12.20;46.30;;;;;;5055585;28;20169;-15
2022/03/20 01:28:23;;;;;;;7.90;5.97;;;12.20;46.30;;;;;;5053295;28;20571;-15
2022/03/20 01:30:49;;;;;;;6.27;5.57;;;12.20;46.30;;;;;;5040904;28;20280;-15
2022/03/20 01:33:16;;;;;;;7.13;5.87;;;12.20;46.30;;;;;;5071684;28;20217;-16
2022/03/20 01:35:42;;;;;;;6.63;5.70;;;12.20;46.40;;;;;;5070965;28;20652;-16
2022/03/20 01:38:08;;;;;;;7.47;5.60;;;12.20;46.40;;;;;;5071934;28;20206;-14
2022/03/20 01:40:35;;;;;;;7.40;6.00;;;12.20;46.30;;;;;;5071762;28;20201;-12
2022/03/20 01:43:02;;;;;;;6.97;5.70;;;12.10;46.30;;;;;;5055190;28;20565;-16
2022/03/20 01:45:28;;;;;;;8.23;5.67;;;12.10;46.30;;;;;;5073407;28;20573;-16
2022/03/20 01:47:54;;;;;;;7.40;5.77;;;12.20;46.40;;;;;;5054532;28;20444;-13
2022/03/20 01:50:25;;;;;;;8.47;5.70;;;12.10;46.30;;;;;;5072932;28;20169;-14
2022/03/20 01:52:54;;;;;;;8.00;6.50;;;12.10;46.30;;;;;;5055138;28;20180;-14
2022/03/20 01:55:24;;;;;;;7.80;5.77;;;12.10;46.30;;;;;;5071588;28;20457;-14
2022/03/20 01:57:50;;;;;;;7.13;5.73;;;12.10;46.40;;;;;;5073681;28;20266;-16
2022/03/20 02:00:18;;;;;;;8.57;6.43;;;12.10;46.40;;;;;;5055992;28;20184;-14
2022/03/20 02:02:44;;;;;;;8.10;6.20;;;12.10;46.30;;;;;;5054868;28;20272;-13
2022/03/20 02:05:11;;;;;;;7.20;5.70;;;12.10;46.30;;;;;;5074131;28;20286;-12
2022/03/20 02:07:40;;;;;;;7.83;6.00;;;12.10;46.30;;;;;;5073888;28;20171;-16
2022/03/20 02:10:08;;;;;;;8.33;5.90;;;12.10;46.30;;;;;;5072613;28;20190;-13
2022/03/20 02:12:35;;;;;;;8.67;6.10;;;12.00;46.20;;;;;;5072316;28;20190;-15
2022/03/20 02:15:01;;;;;;;11.73;6.47;;;12.00;46.20;;;;;;5054157;28;20170;-16
2022/03/20 02:17:29;;;;;;;6.67;5.57;;;12.00;46.20;;;;;;5054669;28;20188;-13
2022/03/20 02:19:59;;;;;;;8.97;6.50;;;12.00;46.20;;;;;;5054275;28;20182;-15
2022/03/20 02:22:25;;;;;;;7.70;5.70;;;12.00;46.20;;;;;;5073394;28;20179;-14
2022/03/20 02:24:52;;;;;;;9.77;6.70;;;12.00;46.20;;;;;;5073058;28;20602;-15
2022/03/20 02:27:27;;;;;;;7.77;6.27;;;12.00;46.20;;;;;;5055505;28;20619;-14
2022/03/20 02:29:56;;;;;;;8.00;6.53;;;12.00;46.20;;;;;;5054639;28;20245;-13
2022/03/20 02:32:27;;;;;;;8.57;6.97;;;12.00;46.20;;;;;;5067531;28;20172;-14
2022/03/20 02:35:15;;;;;;;7.63;6.23;;;12.00;46.10;;;;;;5055178;28;20176;-14
2022/03/20 02:37:49;;;;;;;8.43;6.63;;;11.90;46.10;;;;;;5066925;28;20173;-13
2022/03/20 02:40:17;;;;;;;12.57;7.07;;;11.90;46.00;;;;;;5073507;28;20252;-13
2022/03/20 02:42:49;;;;;;;8.07;6.87;;;11.90;46.00;;;;;;5073020;28;20207;-14
2022/03/20 02:45:23;;;;;;;8.97;7.00;;;11.90;46.00;;;;;;5074061;28;20204;-16
2022/03/20 02:47:51;;;;;;;8.17;6.83;;;11.90;46.00;;;;;;5069431;28;20173;-14
2022/03/20 02:50:24;;;;;;;9.50;6.93;;;11.90;45.90;;;;;;5072584;28;20546;-17
2022/03/20 02:52:56;;;;;;;11.20;6.90;;;11.90;45.90;;;;;;5072625;28;20293;-15
2022/03/20 02:55:32;;;;;;;8.93;7.30;;;11.80;45.90;;;;;;5055638;28;20505;-14
2022/03/20 02:58:01;;;;;;;9.57;7.10;;;11.80;45.90;;;;;;5074047;28;20257;-14
2022/03/20 03:00:32;;;;;;;7.97;6.43;;;11.80;45.90;;;;;;5053577;28;20186;-14
2022/03/20 03:02:59;;;;;;;8.13;6.43;;;11.80;45.90;;;;;;5052119;28;20472;-13
2022/03/20 03:05:27;;;;;;;9.50;7.23;;;11.80;45.80;;;;;;5035691;28;20503;-13
2022/03/20 03:11:02;;;;;;;9.80;7.57;;;11.80;45.80;;;;;;5072593;28;20211;-14
2022/03/20 03:13:37;;;;;;;8.83;6.93;;;11.80;45.70;;;;;;5055887;28;20438;-16
2022/03/20 03:16:05;;;;;;;9.37;7.00;;;11.80;45.80;;;;;;5055373;28;20564;-14
2022/03/20 03:18:31;;;;;;;8.60;6.70;;;11.70;45.70;;;;;;5055282;28;20171;-15
2022/03/20 03:20:57;;;;;;;9.70;6.83;;;11.70;45.70;;;;;;5056606;28;20217;-15
2022/03/20 03:23:26;;;;;;;8.97;6.80;;;11.70;45.70;;;;;;5074704;28;20588;-14
2022/03/20 03:25:54;;;;;;;9.53;7.27;;;11.70;45.70;;;;;;5091193;28;20243;-13
2022/03/20 03:28:20;;;;;;;8.53;6.73;;;11.70;45.70;;;;;;5068239;28;20240;-14
2022/03/20 03:30:48;;;;;;;7.97;6.77;;;11.70;46.10;;;;;;5088196;28;20415;-14
2022/03/20 03:33:17;;;;;;;9.53;6.87;;;11.70;45.70;;;;;;5068408;28;20557;-15
2022/03/20 03:35:51;;;;;;;10.13;6.93;;;11.70;45.70;;;;;;5071424;28;20198;-14
2022/03/20 03:38:20;;;;;;;8.80;6.63;;;11.70;45.70;;;;;;5091214;28;20654;-15
2022/03/20 03:40:47;;;;;;;8.53;6.93;;;11.70;45.70;;;;;;5091109;28;20246;-14
2022/03/20 03:43:15;;;;;;;8.63;6.80;;;11.70;45.70;;;;;;5074282;28;20182;-14
2022/03/20 03:45:43;;;;;;;8.20;6.27;;;11.70;45.70;;;;;;5089682;28;20204;-14
2022/03/20 03:48:10;;;;;;;9.53;6.83;;;11.70;45.70;;;;;;5077634;28;20731;-14
2022/03/20 03:50:37;;;;;;;8.40;6.73;;;11.70;45.70;;;;;;5086706;28;20175;-15
2022/03/20 03:53:04;;;;;;;10.13;6.50;;;11.70;45.70;;;;;;5074752;28;20178;-16
2022/03/20 03:55:31;;;;;;;9.00;6.60;;;11.60;45.70;;;;;;5091656;28;20206;-15
2022/03/20 03:57:57;;;;;;;8.43;6.30;;;11.60;45.70;;;;;;5069791;28;20540;-15
2022/03/20 04:00:24;;;;;;;9.00;6.53;;;11.60;45.70;;;;;;5085968;28;20226;-16
2022/03/20 04:02:50;;;;;;;9.17;6.77;;;11.60;45.70;;;;;;5089827;28;20189;-16
2022/03/20 04:05:19;;;;;;;8.73;6.73;;;11.60;45.70;;;;;;5083084;28;20281;-16
2022/03/20 04:07:46;;;;;;;8.40;6.60;;;11.60;45.70;;;;;;5077192;28;20660;-17
2022/03/20 04:10:12;;;;;;;9.60;6.90;;;11.60;45.70;;;;;;5095259;28;20663;-14
2022/03/20 04:12:43;;;;;;;9.80;7.00;;;11.60;45.60;;;;;;5075015;28;20187;-14
2022/03/20 04:15:10;;;;;;;9.20;6.53;;;11.60;45.50;;;;;;5072495;28;20191;-14
2022/03/20 04:17:37;;;;;;;10.50;6.90;;;11.50;45.50;;;;;;5062885;28;20186;-15
2022/03/20 04:20:03;;;;;;;8.90;6.77;;;11.50;45.40;;;;;;5089552;28;20690;-15
2022/03/20 04:22:30;;;;;;;8.90;7.13;;;11.50;45.40;;;;;;5082133;28;20548;-15
2022/03/20 04:24:56;;;;;;;9.40;7.47;;;11.50;45.40;;;;;;5096771;28;20234;-13
2022/03/20 04:27:22;;;;;;;9.30;6.87;;;11.50;45.30;;;;;;5061909;28;20205;-15
2022/03/20 04:29:48;;;;;;;10.07;7.63;;;11.50;45.30;;;;;;5059100;28;20180;-15
2022/03/20 04:32:14;;;;;;;8.80;7.07;;;11.50;45.30;;;;;;5058415;28;20181;-16
2022/03/20 04:34:41;;;;;;;8.70;6.93;;;11.50;45.20;;;;;;5075312;28;20177;-13
2022/03/20 04:37:09;;;;;;;9.47;7.40;;;11.40;45.20;;;;;;5075630;28;20180;-13
2022/03/20 04:39:36;;;;;;;9.93;7.47;;;11.50;45.10;;;;;;5057123;28;20621;-15
2022/03/20 04:42:03;;;;;;;8.27;6.93;;;11.50;45.20;;;;;;5057759;28;20187;-15
2022/03/20 04:44:29;;;;;;;10.23;7.50;;;11.40;45.10;;;;;;5076364;28;20303;-14
2022/03/20 04:46:55;;;;;;;9.37;7.40;;;11.40;45.10;;;;;;5075744;28;20274;-14
2022/03/20 05:00:21;;;;;;;10.47;7.57;;;11.40;45.20;;;;;;5087410;28;20188;-14
2022/03/20 05:02:48;;;;;;;9.03;7.00;;;11.30;45.20;;;;;;5069295;28;20229;-15
2022/03/20 05:05:17;;;;;;;8.50;6.70;;;11.30;45.20;;;;;;5073103;28;20609;-16
2022/03/20 05:07:43;;;;;;;10.87;7.60;;;11.30;45.20;;;;;;5067303;28;20248;-16
2022/03/20 05:15:39;;;;;;;10.87;7.67;;;11.30;45.20;;;;;;5095563;28;20235;-14
2022/03/20 05:18:08;;;;;;;9.73;7.80;;;11.30;45.10;;;;;;5090197;28;20171;-15
2022/03/20 05:20:35;;;;;;;9.50;7.50;;;11.30;45.20;;;;;;5072733;28;20195;-15
2022/03/20 05:23:01;;;;;;;10.20;7.63;;;11.30;45.20;;;;;;5085181;28;20608;-14
2022/03/20 05:25:30;;;;;;;9.57;7.50;;;11.30;45.20;;;;;;5086366;28;20215;-14
2022/03/20 05:27:57;;;;;;;10.50;7.70;;;11.20;45.10;;;;;;5056992;28;20172;-14
2022/03/20 05:30:23;;;;;;;11.70;7.77;;;11.30;45.10;;;;;;5067398;28;20228;-13
2022/03/20 05:32:50;;;;;;;9.70;7.63;;;11.20;45.00;;;;;;5066640;28;20172;-15
2022/03/20 05:35:16;;;;;;;9.47;7.70;;;11.20;45.00;;;;;;5073022;28;20526;-15
2022/03/20 05:37:43;;;;;;;9.53;7.30;;;11.20;45.00;;;;;;5073785;28;20184;-15
2022/03/20 05:40:10;;;;;;;11.03;7.80;;;11.20;45.00;;;;;;5056653;28;20465;-13
2022/03/20 05:42:36;;;;;;;10.17;8.07;;;11.20;45.00;;;;;;5056343;28;20255;-15
2022/03/20 05:45:03;;;;;;;10.13;7.80;;;11.20;45.00;;;;;;5072511;28;20208;-13
2022/03/20 05:47:31;;;;;;;8.77;7.27;;;11.10;45.00;;;;;;5056351;28;20452;-15
2022/03/20 05:49:59;;;;;;;8.80;7.30;;;11.10;45.00;;;;;;5053516;28;20545;-15
2022/03/20 05:52:24;;;;;;;9.83;7.23;;;11.10;45.00;;;;;;5054485;28;20269;-14
2022/03/20 05:54:50;;;;;;;10.63;7.60;;;11.10;44.90;;;;;;5073396;28;20260;-17
2022/03/20 06:00:00;;;;;;;10.50;7.73;;;11.10;44.90;;;;;;5073512;28;20251;-15
2022/03/20 06:02:26;;;;;;;10.50;7.60;;;11.10;44.90;;;;;;5073020;28;20275;-15
2022/03/20 06:04:53;;;;;;;8.10;7.30;;;11.10;44.90;;;;;;5070686;28;20214;-15
2022/03/20 06:07:18;;;;;;;9.47;7.20;;;11.10;44.80;;;;;;5056147;28;20177;-15
2022/03/20 06:09:44;;;;;;;9.80;7.37;;;11.10;44.80;;;;;;5057800;28;20176;-15
2022/03/20 06:12:10;;;;;;;10.47;7.20;;;11.10;44.80;;;;;;5051698;28;20284;-15
2022/03/20 06:14:36;;;;;;;10.10;7.13;;;11.10;44.70;;;;;;5071539;28;20179;-16
2022/03/20 06:17:04;;;;;;;8.43;7.23;;;11.10;45.10;;;;;;5067673;28;20479;-17
2022/03/20 06:19:30;;;;;;;9.53;7.50;;;11.10;44.60;;;;;;5054409;28;20174;-17
2022/03/20 06:21:56;;;;;;;10.70;7.60;;;11.20;44.60;;;;;;5073899;28;20182;-13
2022/03/20 06:24:21;;;;;;;9.90;7.90;;;11.30;44.60;;;;;;5071684;28;20201;-15
2022/03/20 06:26:47;;;;;;;8.97;7.17;;;11.30;44.50;;;;;;5071221;28;20183;-15
2022/03/20 06:29:12;;;;;;;9.73;8.07;;;11.40;44.40;;;;;;5071707;28;20213;-15
2022/03/20 06:31:38;;;;;;;10.73;7.67;;;11.50;44.30;;;;;;5054144;28;20178;-17
2022/03/20 06:34:04;;;;;;;9.80;7.97;;;11.50;44.20;;;;;;5050914;28;20277;-15
2022/03/20 06:36:31;;;;;;;9.67;7.60;;;11.60;44.10;;;;;;5072918;28;20508;-16
2022/03/20 06:38:57;;;;;;;9.83;7.93;;;11.60;44.00;;;;;;5067456;28;20265;-16
2022/03/20 06:41:23;;;;;;;9.43;7.23;;;11.60;44.00;;;;;;5054346;28;20289;-17
2022/03/20 06:43:50;;;;;;;9.37;7.50;;;11.70;43.90;;;;;;5074299;28;20458;-15
2022/03/20 06:46:16;;;;;;;9.80;8.00;;;11.70;43.80;;;;;;5072350;28;20555;-15
2022/03/20 06:48:42;;;;;;;9.97;7.50;;;11.80;43.80;;;;;;5072353;28;20179;-18
2022/03/20 06:51:08;;;;;;;8.77;7.70;;;11.80;43.70;;;;;;5055895;28;20349;-13
2022/03/20 06:53:34;;;;;;;9.67;7.80;;;11.90;43.70;;;;;;5068979;28;20174;-19
2022/03/20 06:56:00;;;;;;;9.03;7.47;;;11.90;43.60;;;;;;5073079;28;20190;-15
2022/03/20 06:58:28;;;;;;;10.33;8.00;;;11.90;43.50;;;;;;5073403;28;20179;-15
2022/03/20 07:00:54;;;;;;;10.00;7.90;;;12.00;43.50;;;;;;5054915;28;20176;-15
2022/03/20 07:03:20;;;;;;;9.23;8.00;;;12.00;43.40;;;;;;5073836;28;20237;-16
2022/03/20 07:05:46;;;;;;;9.67;7.43;;;12.10;43.40;;;;;;5075647;28;20480;-15
2022/03/20 07:08:12;;;;;;;11.57;8.10;;;12.20;43.30;;;;;;5075191;28;21280;-17
2022/03/20 07:10:38;;;;;;;9.83;8.03;;;12.20;43.30;;;;;;5056077;28;20263;-15
2022/03/20 07:15:52;;;;;;;10.93;8.00;;;12.30;43.10;;;;;;5074693;28;20646;-18
2022/03/20 07:18:19;;;;;;;12.03;8.20;;;12.40;42.90;;;;;;5072881;28;20182;-16
2022/03/20 07:20:48;;;;;;;9.80;8.10;;;12.50;42.90;;;;;;5073112;28;20182;-18
2022/03/20 07:23:14;;;;;;;9.77;7.80;;;12.60;42.80;;;;;;5057036;28;20546;-18
2022/03/20 07:31:11;;;;;;;8.80;7.90;;;12.80;42.40;;;;;;5075084;28;20414;-16
2022/03/20 07:33:38;;;;;;;9.40;8.17;;;12.90;42.30;;;;;;5073895;28;20578;-18
2022/03/20 07:36:05;;;;;;;9.20;8.03;;;13.00;42.30;;;;;;5074225;28;20181;-15
2022/03/20 07:38:30;;;;;;;10.33;8.20;;;13.00;42.10;;;;;;5057199;28;20286;-16
2022/03/20 07:40:56;;;;;;;12.07;8.37;;;13.10;42.10;;;;;;5054810;28;20286;-15
2022/03/20 07:43:22;;;;;;;9.23;8.00;;;13.20;42.10;;;;;;5074709;28;20267;-16
2022/03/20 07:45:48;;;;;;;9.63;7.97;;;13.20;42.00;;;;;;5074622;28;20345;-17
2022/03/20 07:48:13;;;;;;;10.70;8.30;;;13.30;41.90;;;;;;5069663;28;20274;-16
2022/03/20 07:50:40;;;;;;;9.77;8.33;;;13.30;41.80;;;;;;5072910;28;20212;-16
2022/03/20 07:53:07;;;;;;;10.17;7.87;;;13.30;41.70;;;;;;5073794;28;20435;-19
2022/03/20 07:55:34;;;;;;;11.33;9.20;;;13.40;41.80;;;;;;5083835;28;20183;-17
2022/03/20 07:58:01;;;;;;;9.03;8.13;;;13.40;41.70;;;;;;5056697;28;20186;-19
2022/03/20 08:00:27;;;;;;;9.63;7.77;;;13.20;42.10;;;;;;5075328;28;20179;-17
2022/03/20 08:02:53;;;;;;;9.40;8.10;;;13.10;41.90;;;;;;5057853;28;20265;-17
2022/03/20 08:05:24;;;;;;;11.40;8.53;;;12.90;42.00;;;;;;5074899;28;20241;-15
2022/03/20 08:07:50;;;;;;;10.30;7.83;;;12.90;42.20;;;;;;5056090;28;20182;-15
2022/03/20 08:10:16;;;;;;;10.00;8.30;;;12.90;42.20;;;;;;5073748;28;20254;-16
2022/03/20 08:12:42;;;;;;;11.53;8.53;;;13.00;42.10;;;;;;5072167;28;20189;-17
2022/03/20 08:15:09;;;;;;;11.80;8.40;;;13.30;41.90;;;;;;5056731;28;20579;-17
2022/03/20 08:17:45;;;;;;;11.40;9.10;;;13.30;41.70;;;;;;5074369;28;20178;-16
2022/03/20 08:20:12;;;;;;;11.37;8.63;;;13.40;41.60;;;;;;5073501;28;20181;-17
2022/03/20 08:22:37;;;;;;;10.03;8.57;;;13.50;41.50;;;;;;5055967;28;20187;-16
2022/03/20 08:25:05;;;;;;;9.90;8.40;;;13.40;41.50;;;;;;5073890;28;20206;-15
2022/03/20 08:27:31;;;;;;;9.90;8.53;;;13.10;41.70;;;;;;5074404;28;20184;-16
2022/03/20 08:29:59;;;;;;;13.50;8.57;;;13.00;41.80;;;;;;5072044;28;20469;-16
2022/03/20 08:32:25;;;;;;;10.70;8.47;;;12.90;42.00;;;;;;5052974;28;20224;-17
2022/03/20 08:34:52;;;;;;;11.70;8.63;;;12.80;42.10;;;;;;5055140;28;20530;-19
2022/03/20 08:37:17;;;;;;;10.73;8.87;;;13.00;42.10;;;;;;5056235;28;20211;-15
2022/03/20 08:39:43;;;;;;;11.63;9.03;;;13.40;41.80;;;;;;5073366;28;20257;-16
2022/03/20 08:42:10;;;;;;;10.03;8.23;;;13.70;41.50;;;;;;5053550;28;20177;-17
2022/03/20 08:44:36;;;;;;;10.60;9.13;;;13.90;41.20;;;;;;5068147;28;20237;-18
2022/03/20 08:47:02;;;;;;;11.07;8.90;;;13.90;41.10;;;;;;5069314;28;20172;-16
2022/03/20 08:49:28;;;;;;;11.00;8.70;;;13.90;41.00;;;;;;5054853;28;20468;-20
2022/03/20 08:51:53;;;;;;;12.27;9.50;;;13.70;41.10;;;;;;5070181;28;20202;-20
2022/03/20 08:54:19;;;;;;;10.43;8.93;;;13.50;41.30;;;;;;5051234;28;20187;-19
2022/03/20 08:56:45;;;;;;;13.17;9.83;;;13.40;41.40;;;;;;5069189;28;20243;-23
2022/03/20 08:59:11;;;;;;;11.80;8.93;;;13.40;41.50;;;;;;5071511;28;20252;-19
2022/03/20 09:01:36;;;;;;;13.17;8.77;;;13.40;41.50;;;;;;5076915;28;20194;-16
2022/03/20 09:04:03;;;;;;;10.83;9.20;;;13.60;41.60;;;;;;5067615;28;20184;-18
2022/03/20 09:06:28;;;;;;;10.43;9.23;;;13.80;41.30;;;;;;5064363;28;20187;-17
2022/03/20 09:08:54;;;;;;;11.43;9.23;;;13.90;41.10;;;;;;5078251;28;20184;-17
2022/03/20 09:11:21;;;;;;;10.80;9.40;;;13.80;41.10;;;;;;5063178;28;20201;-17
2022/03/20 09:13:47;;;;;;;10.87;9.17;;;13.80;41.20;;;;;;5077591;28;20201;-15
2022/03/20 09:19:07;;;;;;;11.23;9.33;;;13.70;41.40;;;;;;5079090;28;20198;-17
2022/03/20 09:21:34;;;;;;;12.47;9.30;;;13.50;41.50;;;;;;5058552;28;20178;-17
2022/03/20 09:24:02;;;;;;;11.67;9.53;;;13.40;41.70;;;;;;5056672;28;20177;-17
2022/03/20 09:26:28;;;;;;;11.53;8.73;;;13.20;41.90;;;;;;5082423;28;20447;-20
2022/03/20 09:28:54;;;;;;;10.20;8.33;;;13.10;42.20;;;;;;5077238;28;20172;-19
2022/03/20 09:31:20;;;;;;;11.50;8.43;;;13.00;42.70;;;;;;5059798;28;20173;-18
2022/03/20 09:33:47;;;;;;;9.50;7.83;;;12.90;43.20;;;;;;5079097;28;20267;-21
2022/03/20 09:36:12;;;;;;;11.00;8.03;;;12.80;43.30;;;;;;5077778;28;20188;-18
2022/03/20 09:38:39;;;;;;;10.63;8.50;;;12.80;43.50;;;;;;5062452;28;20181;-17
2022/03/20 09:41:09;;;;;;;9.80;8.07;;;12.80;43.60;;;;;;5056680;28;20183;-16
2022/03/20 09:43:38;;;;;;;11.93;8.37;;;12.80;43.80;;;;;;5052235;28;20444;-16
2022/03/20 09:46:04;;;;;;;10.77;8.40;;;12.80;44.00;;;;;;5034152;28;20626;-16
2022/03/20 09:48:30;;;;;;;12.50;8.40;;;12.90;44.20;;;;;;5052946;28;20587;-19
2022/03/20 09:51:01;;;;;;;11.37;7.87;;;12.90;44.10;;;;;;5075246;28;20168;-15
2022/03/20 09:53:28;;;;;;;11.67;8.13;;;12.90;44.20;;;;;;5070961;28;20172;-17
2022/03/20 09:55:55;;;;;;;9.87;7.67;;;13.00;44.20;;;;;;5056761;28;20179;-16
2022/03/20 09:58:25;;;;;;;10.23;8.30;;;13.00;44.10;;;;;;5077143;28;20342;-18
2022/03/20 10:00:52;;;;;;;12.23;8.03;;;13.00;44.50;;;;;;5056907;28;20179;-17
2022/03/20 10:03:20;;;;;;;10.50;7.77;;;13.00;44.10;;;;;;5077173;28;20580;-16
2022/03/20 10:06:21;;;;;;;10.57;8.53;;;13.00;44.10;;;;;;5076611;28;20202;-17
2022/03/20 10:08:59;;;;;;;11.83;8.07;;;13.00;44.20;;;;;;5054337;28;20181;-17
2022/03/20 10:11:26;;;;;;;11.67;8.23;;;13.00;44.20;;;;;;5048975;28;20181;-16
2022/03/20 10:14:10;;;;;;;9.10;7.37;;;13.10;44.20;;;;;;5049202;28;20560;-16
2022/03/20 10:16:41;;;;;;;12.00;8.00;;;13.10;44.20;;;;;;5079399;28;20278;-16
2022/03/20 10:19:22;;;;;;;10.27;7.90;;;13.10;44.20;;;;;;5077908;28;20224;-21
2022/03/20 10:21:53;;;;;;;10.37;8.17;;;13.10;44.30;;;;;;5076270;28;20193;-16
2022/03/20 10:24:21;;;;;;;9.63;7.73;;;13.10;44.20;;;;;;5075433;28;20202;-16
2022/03/20 10:27:02;;;;;;;10.23;7.23;;;13.10;44.40;;;;;;5078734;28;20186;-19
2022/03/20 10:29:29;;;;;;;10.57;8.30;;;13.10;44.50;;;;;;5072509;28;20193;-17
2022/03/20 10:31:59;;;;;;;11.50;7.63;;;13.10;44.90;;;;;;5060697;28;20186;-16
2022/03/20 10:34:25;;;;;;;10.77;8.10;;;13.10;44.90;;;;;;5072610;28;20185;-17
2022/03/20 10:36:51;;;;;;;11.63;7.87;;;13.20;45.00;;;;;;5076256;28;20190;-16
2022/03/20 10:39:20;;;;;;;9.70;7.67;;;13.20;45.00;;;;;;5078217;28;20704;-21
2022/03/20 10:41:48;;;;;;;10.97;7.80;;;13.20;45.10;;;;;;5056353;28;20280;-20
2022/03/20 10:44:18;;;;;;;10.80;7.93;;;13.20;45.10;;;;;;5070863;28;20211;-16
2022/03/20 10:47:09;;;;;;;13.27;7.77;;;13.20;45.20;;;;;;5066065;28;20287;-17
2022/03/20 10:49:35;;;;;;;9.03;7.23;;;13.20;45.20;;;;;;5039184;28;20248;-16
2022/03/20 10:52:11;;;;;;;11.47;7.93;;;13.20;45.30;;;;;;5077809;28;20502;-16
2022/03/20 10:54:50;;;;;;;11.00;7.57;;;13.20;45.30;;;;;;5053369;28;20202;-18
2022/03/20 10:57:15;;;;;;;10.73;7.67;;;13.20;45.20;;;;;;5057962;28;20175;-16
2022/03/20 10:59:42;;;;;;;8.77;7.00;;;13.30;45.40;;;;;;5073669;28;20176;-19
2022/03/20 11:02:22;;;;;;;8.23;7.30;;;13.30;45.50;;;;;;5072784;28;20286;-17
2022/03/20 11:04:49;;;;;;;21.00;8.47;;;13.30;45.50;;;;;;5070719;28;20202;-17
2022/03/20 11:07:17;;;;;;;8.67;7.23;;;13.30;45.60;;;;;;5077098;28;20266;-16
2022/03/20 11:09:50;;;;;;;15.80;8.23;;;13.40;45.80;;;;;;5074067;28;20188;-16
2022/03/20 11:12:27;;;;;;;11.90;9.07;;;13.40;46.50;;;;;;5064271;28;20192;-19
2022/03/20 11:14:58;;;;;;;17.43;9.60;;;14.00;51.70;;;;;;5083590;28;20179;-18
2022/03/20 11:17:31;;;;;;;20.17;10.20;;;14.50;52.30;;;;;;5063070;28;20190;-17
2022/03/20 11:19:57;;;;;;;21.07;10.77;;;14.80;52.10;;;;;;5078932;28;20288;-17
2022/03/20 11:22:24;;;;;;;19.03;9.83;;;14.90;51.70;;;;;;5052257;28;20204;-15
2022/03/20 11:24:55;;;;;;;18.77;11.77;;;15.10;51.10;;;;;;5051249;28;20199;-17
2022/03/20 11:27:30;;;;;;;22.43;10.90;;;15.20;50.90;;;;;;5051109;28;20190;-16
2022/03/20 11:30:07;;;;;;;17.00;11.43;;;15.30;50.50;;;;;;5068923;28;20479;-19
2022/03/20 11:32:34;;;;;;;17.27;11.23;;;15.40;50.20;;;;;;5068920;28;20198;-21
2022/03/20 11:35:03;;;;;;;15.90;11.60;;;15.40;50.00;;;;;;5082773;28;20189;-17
2022/03/20 11:37:48;;;;;;;24.60;11.77;;;15.40;50.00;;;;;;5075743;28;20449;-16
2022/03/20 11:40:24;;;;;;;16.37;11.47;;;15.50;49.60;;;;;;5045035;28;20566;-20
2022/03/20 11:43:11;;;;;;;20.93;11.87;;;15.50;49.40;;;;;;5059669;28;20190;-16
2022/03/20 11:45:37;;;;;;;18.77;12.13;;;15.60;49.30;;;;;;5074881;28;20256;-17
2022/03/20 11:48:14;;;;;;;18.83;12.83;;;15.60;49.10;;;;;;5053014;28;20201;-17
2022/03/20 11:50:43;;;;;;;17.53;12.10;;;15.70;49.10;;;;;;5052821;28;20178;-18
2022/03/20 11:53:09;;;;;;;18.80;12.80;;;15.80;48.90;;;;;;5059704;28;20586;-16
2022/03/20 11:55:40;;;;;;;21.60;12.80;;;15.80;48.60;;;;;;5063676;28;20186;-16
2022/03/20 11:58:32;;;;;;;16.00;13.17;;;15.80;48.20;;;;;;5065380;28;20205;-16
2022/03/20 12:01:11;;;;;;;21.07;13.93;;;15.80;47.90;;;;;;5075417;28;20179;-17
2022/03/20 12:03:55;;;;;;;17.97;13.40;;;15.90;47.60;;;;;;5077843;28;20189;-16
2022/03/20 12:06:56;;;;;;;18.77;13.37;;;15.90;47.30;;;;;;5077340;28;20214;-18
2022/03/20 12:09:41;;;;;;;16.77;13.27;;;15.90;47.20;;;;;;5080742;28;20230;-18
2022/03/20 12:12:44;;;;;;;18.90;13.60;;;16.00;47.10;;;;;;5088457;28;20469;-17
2022/03/20 12:15:11;;;;;;;19.63;12.80;;;16.00;46.90;;;;;;5053930;28;20187;-18
2022/03/20 12:18:05;;;;;;;21.97;13.37;;;16.00;46.90;;;;;;5060495;28;20186;-19
2022/03/20 12:20:49;;;;;;;17.67;12.90;;;16.00;46.90;;;;;;5075880;28;20649;-19
2022/03/20 12:23:46;;;;;;;20.33;12.63;;;16.10;47.10;;;;;;5061326;28;20194;-17
2022/03/20 12:26:31;;;;;;;13.80;11.40;;;16.10;47.20;;;;;;5071791;28;20222;-19
2022/03/20 12:29:28;;;;;;;19.13;12.20;;;16.10;47.20;;;;;;5061539;28;20172;-18
2022/03/20 12:31:57;;;;;;;18.40;11.10;;;16.20;47.20;;;;;;5071811;28;20221;-18
2022/03/20 12:34:25;;;;;;;15.00;10.60;;;16.20;47.30;;;;;;5076227;28;20175;-20
2022/03/20 12:36:51;;;;;;;17.10;11.50;;;16.20;47.20;;;;;;5077497;28;20486;-17
2022/03/20 12:39:49;;;;;;;16.40;10.87;;;16.20;47.30;;;;;;5077320;28;20167;-17
2022/03/20 12:42:17;;;;;;;14.17;10.07;;;16.30;47.50;;;;;;5069215;28;20175;-17
2022/03/20 12:44:48;;;;;;;14.77;10.73;;;16.30;47.60;;;;;;5060839;28;20641;-18
2022/03/20 12:47:19;;;;;;;14.97;9.83;;;16.30;47.70;;;;;;5056954;28;20627;-19
2022/03/20 12:50:09;;;;;;;13.97;10.37;;;16.30;47.70;;;;;;5054916;28;20178;-18
2022/03/20 12:52:37;;;;;;;14.10;9.97;;;16.30;47.70;;;;;;5052816;28;20187;-16
2022/03/20 12:55:10;;;;;;;12.53;10.17;;;16.30;47.70;;;;;;5054210;28;20525;-18
2022/03/20 12:57:40;;;;;;;13.43;10.17;;;16.30;47.80;;;;;;5056307;28;20189;-18
2022/03/20 13:00:20;;;;;;;13.60;10.00;;;16.40;47.80;;;;;;5067361;28;20474;-17
2022/03/20 13:03:06;;;;;;;14.17;9.93;;;16.40;47.80;;;;;;5088592;28;20214;-17
2022/03/20 13:05:35;;;;;;;15.50;9.50;;;16.40;47.80;;;;;;5075446;28;20553;-17
2022/03/20 13:08:01;;;;;;;14.50;9.63;;;16.40;47.90;;;;;;5088390;28;20182;-17
2022/03/20 13:10:38;;;;;;;14.03;10.00;;;16.40;47.90;;;;;;5070842;28;20298;-17
2022/03/20 13:13:06;;;;;;;11.27;9.33;;;16.40;47.90;;;;;;5053490;28;20553;-18
2022/03/20 13:15:35;;;;;;;14.17;10.00;;;16.50;47.90;;;;;;5070883;28;20652;-18
2022/03/20 13:18:02;;;;;;;11.27;9.27;;;16.50;47.90;;;;;;5053955;28;20178;-19
2022/03/20 13:20:31;;;;;;;11.03;9.10;;;16.50;47.90;;;;;;5053859;28;20272;-17
2022/03/20 13:22:58;;;;;;;12.37;9.17;;;16.50;47.90;;;;;;5070249;28;20180;-17